Time;durP1;ratioP1;P1;durP2;ratioP2;P2;SDS_P1;SDS_P2;PMS_P1;PMS_P2;Temp;Humidity;BMP_temperature;BMP_pressure;BME280_temperature;BME280_humidity;BME280_pressure;Samples;Min_cycle;Max_cycle;Signal;HPM_P1;HPM_P2
2023/11/24 00:02:04;;;;;;;0.80;0.50;;;13.30;97.70;;;;;;5034179;28;20029;-46
2023/11/24 00:04:29;;;;;;;1.15;0.60;;;13.30;97.70;;;;;;5033072;28;20476;-47
2023/11/24 00:06:58;;;;;;;1.30;0.60;;;13.30;97.80;;;;;;5032733;28;20026;-46
2023/11/24 00:09:27;;;;;;;0.80;0.40;;;13.30;97.80;;;;;;5033174;28;20068;-46
2023/11/24 00:11:52;;;;;;;0.55;0.40;;;13.30;97.90;;;;;;5033458;28;20026;-45
2023/11/24 00:14:18;;;;;;;1.00;0.45;;;13.20;97.90;;;;;;5033028;28;20195;-46
2023/11/24 00:16:44;;;;;;;0.40;0.30;;;13.30;97.90;;;;;;5032207;28;20036;-46
2023/11/24 00:19:15;;;;;;;1.60;0.52;;;13.20;98.00;;;;;;5033379;28;20033;-46
2023/11/24 00:21:46;;;;;;;0.40;0.30;;;13.20;98.00;;;;;;5033537;28;20021;-46
2023/11/24 00:24:12;;;;;;;0.40;0.30;;;13.20;98.10;;;;;;5033448;28;20025;-46
2023/11/24 00:26:39;;;;;;;0.47;0.40;;;13.20;98.10;;;;;;5034050;28;20048;-46
2023/11/24 00:29:05;;;;;;;0.75;0.40;;;13.20;98.10;;;;;;5032405;28;20024;-45
2023/11/24 00:31:31;;;;;;;1.00;0.60;;;13.10;98.10;;;;;;5033128;28;20017;-46
2023/11/24 00:33:57;;;;;;;0.50;0.30;;;13.20;98.10;;;;;;5033361;28;20029;-44
2023/11/24 00:36:23;;;;;;;1.35;0.40;;;13.10;98.20;;;;;;5033486;28;20022;-45
2023/11/24 00:38:52;;;;;;;2.25;0.40;;;13.10;98.20;;;;;;5031449;28;20045;-44
2023/11/24 00:41:17;;;;;;;0.70;0.40;;;13.10;98.20;;;;;;5033340;28;20022;-46
2023/11/24 00:43:45;;;;;;;1.08;0.38;;;13.10;98.20;;;;;;5032679;28;20052;-46
2023/11/24 00:46:11;;;;;;;0.47;0.38;;;13.10;98.30;;;;;;5032387;28;20467;-45
2023/11/24 00:48:37;;;;;;;0.75;0.30;;;13.10;98.30;;;;;;5032573;28;20029;-45
2023/11/24 00:51:04;;;;;;;0.57;0.30;;;13.10;98.30;;;;;;5032853;28;20022;-45
2023/11/24 00:53:30;;;;;;;0.70;0.40;;;13.10;98.40;;;;;;5031912;28;20381;-45
2023/11/24 00:55:56;;;;;;;0.20;0.20;;;13.10;98.40;;;;;;5032875;28;20025;-44
2023/11/24 00:58:22;;;;;;;0.75;0.47;;;13.10;98.40;;;;;;5032456;28;20021;-46
2023/11/24 01:00:48;;;;;;;0.40;0.40;;;13.00;98.70;;;;;;5032942;28;20025;-46
2023/11/24 01:03:15;;;;;;;0.45;0.35;;;13.10;98.40;;;;;;5032478;28;20033;-46
2023/11/24 01:05:41;;;;;;;0.60;0.40;;;13.00;98.50;;;;;;5032839;28;20032;-45
2023/11/24 01:08:06;;;;;;;0.50;0.30;;;13.00;98.50;;;;;;5032266;28;20021;-46
2023/11/24 01:10:32;;;;;;;0.82;0.30;;;13.00;98.50;;;;;;5032472;28;20017;-46
2023/11/24 01:12:59;;;;;;;0.57;0.38;;;13.00;98.50;;;;;;5033073;28;20057;-46
2023/11/24 01:15:25;;;;;;;0.60;0.28;;;13.00;98.60;;;;;;5031598;28;20030;-44
2023/11/24 01:17:50;;;;;;;0.30;0.28;;;13.00;98.60;;;;;;5032921;28;20029;-45
2023/11/24 01:20:16;;;;;;;0.35;0.20;;;13.00;98.60;;;;;;5032079;28;20043;-46
2023/11/24 01:22:43;;;;;;;0.52;0.30;;;13.00;98.60;;;;;;5031731;28;20029;-46
2023/11/24 01:25:09;;;;;;;0.40;0.22;;;13.00;98.60;;;;;;5032357;28;20057;-46
2023/11/24 01:27:35;;;;;;;0.28;0.20;;;13.00;98.70;;;;;;5032356;28;20025;-46
2023/11/24 01:30:01;;;;;;;0.77;0.35;;;13.00;98.70;;;;;;5031740;28;20028;-45
2023/11/24 01:32:27;;;;;;;0.43;0.20;;;13.00;98.70;;;;;;5031297;28;20030;-46
2023/11/24 01:34:52;;;;;;;0.20;0.20;;;12.90;98.70;;;;;;5032135;28;20021;-46
2023/11/24 01:37:20;;;;;;;0.82;0.40;;;13.00;98.80;;;;;;5032236;28;20531;-46
2023/11/24 01:39:46;;;;;;;0.73;0.22;;;12.90;98.70;;;;;;5031812;28;20495;-46
2023/11/24 01:42:13;;;;;;;0.40;0.30;;;13.00;98.80;;;;;;5032023;28;20119;-46
2023/11/24 01:44:38;;;;;;;0.30;0.10;;;13.00;98.80;;;;;;5031970;28;20026;-46
2023/11/24 01:47:07;;;;;;;0.40;0.20;;;12.90;98.80;;;;;;5030895;28;20028;-45
2023/11/24 01:49:33;;;;;;;1.77;0.50;;;12.90;98.80;;;;;;5034855;28;20024;-46
2023/11/24 01:51:59;;;;;;;0.25;0.25;;;12.90;98.80;;;;;;5035989;28;20116;-45
2023/11/24 01:54:26;;;;;;;0.70;0.20;;;12.90;98.90;;;;;;5035186;28;20112;-46
2023/11/24 01:56:55;;;;;;;0.45;0.17;;;12.90;98.90;;;;;;5034871;28;20312;-44
2023/11/24 01:59:22;;;;;;;0.40;0.30;;;12.90;98.90;;;;;;5036312;28;20063;-46
2023/11/24 02:01:48;;;;;;;0.60;0.30;;;12.90;98.90;;;;;;5035411;28;20100;-46
2023/11/24 02:04:15;;;;;;;0.75;0.30;;;12.90;98.90;;;;;;5035646;28;20396;-46
2023/11/24 02:06:42;;;;;;;0.75;0.30;;;12.90;98.90;;;;;;5035638;28;20452;-45
2023/11/24 02:09:09;;;;;;;0.93;0.30;;;12.90;99.00;;;;;;5035440;28;20059;-46
2023/11/24 02:11:35;;;;;;;0.50;0.20;;;12.90;99.00;;;;;;5035964;28;20028;-46
2023/11/24 02:14:01;;;;;;;0.20;0.20;;;12.90;99.00;;;;;;5036334;28;20032;-46
2023/11/24 02:16:26;;;;;;;0.20;0.20;;;12.90;99.00;;;;;;5034944;28;20029;-46
2023/11/24 02:18:52;;;;;;;0.60;0.30;;;12.90;99.00;;;;;;5035394;28;20395;-46
2023/11/24 02:21:18;;;;;;;0.68;0.20;;;12.90;99.00;;;;;;5035877;28;20029;-46
2023/11/24 02:23:44;;;;;;;0.77;0.35;;;12.90;99.00;;;;;;5035994;28;20037;-46
2023/11/24 02:26:10;;;;;;;0.15;0.10;;;12.90;99.10;;;;;;5034457;28;20056;-44
2023/11/24 02:28:36;;;;;;;0.55;0.10;;;12.90;99.10;;;;;;5034597;28;20021;-45
2023/11/24 02:31:03;;;;;;;0.30;0.20;;;12.90;99.10;;;;;;5034746;28;20022;-45
2023/11/24 02:33:30;;;;;;;0.20;0.20;;;12.90;99.10;;;;;;5035395;28;20021;-46
2023/11/24 02:35:58;;;;;;;0.17;0.15;;;12.80;99.10;;;;;;5034727;28;20489;-46
2023/11/24 02:38:24;;;;;;;0.28;0.20;;;12.90;99.20;;;;;;5033851;28;20055;-45
2023/11/24 02:40:50;;;;;;;0.30;0.20;;;12.80;99.20;;;;;;5034045;28;20545;-46
2023/11/24 02:43:16;;;;;;;1.08;0.30;;;12.90;99.20;;;;;;5035081;28;20029;-46
2023/11/24 02:45:41;;;;;;;0.63;0.35;;;12.80;99.20;;;;;;5034975;28;20064;-44
2023/11/24 02:48:07;;;;;;;0.30;0.10;;;12.80;99.20;;;;;;5035996;28;20053;-46
2023/11/24 02:50:32;;;;;;;0.20;0.20;;;12.90;99.30;;;;;;5036115;28;20479;-46
2023/11/24 02:52:58;;;;;;;0.45;0.30;;;12.90;99.30;;;;;;5034101;28;20025;-45
2023/11/24 02:55:24;;;;;;;0.68;0.40;;;12.90;99.30;;;;;;5033320;28;20045;-46
2023/11/24 02:57:50;;;;;;;0.40;0.28;;;12.80;99.30;;;;;;5035039;28;20025;-45
2023/11/24 03:00:17;;;;;;;0.28;0.20;;;12.80;99.30;;;;;;5034207;28;20028;-45
2023/11/24 03:02:46;;;;;;;0.63;0.30;;;12.80;99.30;;;;;;5034695;28;20080;-45
2023/11/24 03:05:11;;;;;;;0.50;0.22;;;12.90;99.30;;;;;;5034045;28;20088;-45
2023/11/24 03:07:37;;;;;;;0.38;0.15;;;12.90;99.30;;;;;;5034297;28;20033;-46
2023/11/24 03:10:05;;;;;;;0.60;0.30;;;12.90;99.40;;;;;;5034428;28;20100;-45
2023/11/24 03:12:30;;;;;;;0.20;0.20;;;12.80;99.40;;;;;;5033852;28;20025;-46
2023/11/24 03:14:56;;;;;;;0.20;0.20;;;12.90;99.40;;;;;;5033972;28;20035;-46
2023/11/24 03:17:21;;;;;;;0.20;0.10;;;12.80;99.40;;;;;;5034337;28;20032;-46
2023/11/24 03:19:48;;;;;;;0.30;0.20;;;12.80;99.40;;;;;;5034414;28;20403;-47
2023/11/24 03:22:14;;;;;;;0.30;0.20;;;12.80;99.40;;;;;;5034788;28;20026;-46
2023/11/24 03:24:40;;;;;;;1.52;0.40;;;12.80;99.40;;;;;;5033793;28;20033;-46
2023/11/24 03:27:05;;;;;;;0.70;0.40;;;12.80;99.40;;;;;;5034055;28;20024;-46
2023/11/24 03:29:33;;;;;;;1.10;0.50;;;12.80;99.40;;;;;;5033795;28;20050;-46
2023/11/24 03:31:59;;;;;;;0.73;0.30;;;12.80;99.50;;;;;;5033628;28;20014;-45
2023/11/24 03:34:25;;;;;;;0.30;0.20;;;12.80;99.50;;;;;;5033567;28;20030;-46
2023/11/24 03:36:51;;;;;;;1.08;0.40;;;12.80;99.50;;;;;;5033999;28;20038;-46
2023/11/24 03:39:17;;;;;;;0.98;0.40;;;12.80;99.50;;;;;;5034027;28;20503;-45
2023/11/24 03:41:42;;;;;;;1.10;0.40;;;12.80;99.50;;;;;;5034136;28;20120;-45
2023/11/24 03:44:08;;;;;;;1.08;0.40;;;12.80;99.50;;;;;;5033818;28;20044;-45
2023/11/24 03:46:33;;;;;;;0.45;0.20;;;12.80;99.50;;;;;;5033387;28;20029;-46
2023/11/24 03:48:59;;;;;;;0.60;0.30;;;12.80;99.50;;;;;;5033498;28;20022;-45
2023/11/24 03:51:26;;;;;;;0.80;0.40;;;12.80;99.60;;;;;;5034487;28;20021;-45
2023/11/24 03:53:52;;;;;;;0.40;0.30;;;12.80;99.60;;;;;;5033233;28;20152;-46
2023/11/24 03:56:18;;;;;;;1.13;0.50;;;12.80;99.60;;;;;;5033726;28;20053;-45
2023/11/24 03:58:43;;;;;;;0.63;0.30;;;12.80;99.60;;;;;;5032852;28;20399;-46
2023/11/24 04:01:15;;;;;;;0.60;0.32;;;12.80;99.60;;;;;;5032973;28;20034;-46
2023/11/24 04:03:46;;;;;;;0.52;0.40;;;12.80;99.60;;;;;;5032917;28;20160;-45
2023/11/24 04:06:12;;;;;;;0.28;0.20;;;12.80;99.60;;;;;;5032330;28;20383;-46
2023/11/24 04:08:37;;;;;;;0.50;0.28;;;12.80;99.60;;;;;;5033211;28;20467;-45
2023/11/24 04:11:03;;;;;;;0.57;0.30;;;12.80;99.60;;;;;;5032327;28;20024;-45
2023/11/24 04:13:29;;;;;;;0.30;0.25;;;12.80;99.60;;;;;;5032303;28;20457;-46
2023/11/24 04:15:54;;;;;;;0.40;0.20;;;12.80;99.60;;;;;;5033745;28;20384;-46
2023/11/24 04:18:20;;;;;;;0.70;0.40;;;12.80;99.70;;;;;;5033413;28;20041;-46
2023/11/24 04:20:45;;;;;;;0.57;0.20;;;12.80;99.70;;;;;;5033425;28;20554;-46
2023/11/24 04:23:13;;;;;;;0.57;0.30;;;12.80;99.70;;;;;;5033253;28;20029;-45
2023/11/24 04:25:40;;;;;;;0.32;0.20;;;12.80;99.70;;;;;;5032941;28;20049;-46
2023/11/24 04:28:07;;;;;;;0.20;0.10;;;12.80;99.70;;;;;;5033335;28;20022;-46
2023/11/24 04:30:33;;;;;;;0.60;0.30;;;12.80;99.70;;;;;;5033023;28;20025;-46
2023/11/24 04:32:58;;;;;;;0.50;0.30;;;12.80;99.70;;;;;;5033447;28;20036;-45
2023/11/24 04:35:24;;;;;;;0.47;0.20;;;12.80;99.80;;;;;;5033269;28;20025;-46
2023/11/24 04:37:50;;;;;;;0.30;0.20;;;12.80;99.80;;;;;;5032261;28;20040;-45
2023/11/24 04:40:18;;;;;;;1.05;0.35;;;12.80;99.80;;;;;;5032374;28;20044;-46
2023/11/24 04:42:44;;;;;;;0.25;0.10;;;12.80;99.80;;;;;;5033192;28;20022;-45
2023/11/24 04:45:11;;;;;;;0.30;0.20;;;12.80;99.80;;;;;;5032546;28;20095;-42
2023/11/24 04:47:37;;;;;;;0.10;0.10;;;12.80;99.80;;;;;;5032832;28;20387;-46
2023/11/24 04:50:03;;;;;;;0.20;0.13;;;12.80;99.80;;;;;;5031715;28;20040;-44
2023/11/24 04:52:28;;;;;;;0.30;0.20;;;12.80;99.80;;;;;;5031925;28;20025;-46
2023/11/24 04:54:54;;;;;;;0.25;0.10;;;12.80;99.80;;;;;;5031975;28;20490;-46
2023/11/24 04:57:20;;;;;;;0.38;0.30;;;12.80;99.90;;;;;;5032137;28;20068;-46
2023/11/24 04:59:46;;;;;;;0.40;0.20;;;12.80;99.90;;;;;;5032407;28;20464;-46
2023/11/24 05:02:12;;;;;;;0.30;0.20;;;12.80;99.90;;;;;;5031499;28;20021;-46
2023/11/24 05:04:38;;;;;;;0.52;0.30;;;12.80;99.90;;;;;;5032406;28;20025;-46
2023/11/24 05:07:04;;;;;;;0.10;0.10;;;12.80;99.90;;;;;;5031346;28;20055;-46
2023/11/24 05:09:29;;;;;;;0.25;0.20;;;12.80;99.90;;;;;;5031482;28;20116;-46
2023/11/24 05:11:55;;;;;;;0.75;0.25;;;12.80;99.90;;;;;;5031943;28;20519;-46
2023/11/24 05:14:21;;;;;;;0.22;0.20;;;12.80;99.90;;;;;;5032442;28;20029;-47
2023/11/24 05:16:46;;;;;;;0.30;0.20;;;12.80;99.90;;;;;;5033440;28;20391;-46
2023/11/24 05:19:12;;;;;;;0.55;0.20;;;12.80;99.90;;;;;;5032905;28;20029;-46
2023/11/24 05:21:39;;;;;;;0.20;0.20;;;12.80;99.90;;;;;;5032648;28;20124;-46
2023/11/24 05:24:06;;;;;;;0.40;0.20;;;12.70;99.90;;;;;;5031495;28;20034;-45
2023/11/24 05:26:32;;;;;;;0.20;0.15;;;12.70;99.90;;;;;;5031461;28;20394;-45
2023/11/24 05:28:58;;;;;;;0.50;0.20;;;12.70;99.90;;;;;;5032403;28;20047;-46
2023/11/24 05:31:25;;;;;;;0.65;0.20;;;12.70;99.90;;;;;;5032910;28;20384;-46
2023/11/24 05:33:51;;;;;;;0.30;0.10;;;12.80;99.90;;;;;;5032258;28;20147;-46
2023/11/24 05:36:18;;;;;;;0.75;0.30;;;12.80;99.90;;;;;;5031073;28;20104;-45
2023/11/24 05:38:48;;;;;;;0.43;0.20;;;12.80;99.90;;;;;;5031643;28;20036;-45
2023/11/24 05:41:14;;;;;;;0.15;0.10;;;12.80;99.90;;;;;;5032344;28;20056;-45
2023/11/24 05:43:40;;;;;;;0.28;0.10;;;12.90;99.90;;;;;;5031652;28;20479;-45
2023/11/24 05:46:06;;;;;;;0.60;0.30;;;12.90;99.90;;;;;;5030977;28;20026;-45
2023/11/24 05:48:32;;;;;;;0.20;0.10;;;12.90;99.90;;;;;;5030974;28;20025;-45
2023/11/24 05:50:58;;;;;;;0.50;0.20;;;13.00;99.90;;;;;;5030938;28;20025;-45
2023/11/24 05:53:25;;;;;;;0.20;0.15;;;13.00;99.90;;;;;;5031819;28;20079;-46
2023/11/24 05:55:52;;;;;;;0.25;0.15;;;13.10;99.90;;;;;;5031994;28;20061;-46
2023/11/24 05:58:17;;;;;;;0.45;0.20;;;13.20;99.90;;;;;;5031690;28;20030;-46
2023/11/24 06:00:43;;;;;;;0.30;0.10;;;13.20;99.80;;;;;;5032332;28;20026;-46
2023/11/24 06:03:10;;;;;;;0.20;0.20;;;13.30;99.80;;;;;;5030849;28;20034;-46
2023/11/24 06:05:36;;;;;;;0.52;0.30;;;13.30;99.60;;;;;;5031452;28;20021;-46
2023/11/24 06:08:04;;;;;;;0.28;0.10;;;13.40;99.50;;;;;;5031395;28;20025;-45
2023/11/24 06:10:29;;;;;;;0.30;0.20;;;13.40;99.40;;;;;;5031817;28;20025;-46
2023/11/24 06:12:55;;;;;;;0.22;0.20;;;13.50;99.40;;;;;;5031471;28;20441;-45
2023/11/24 06:15:21;;;;;;;0.10;0.00;;;13.50;99.30;;;;;;5030785;28;20026;-46
2023/11/24 06:17:48;;;;;;;0.20;0.10;;;13.50;99.20;;;;;;5031679;28;20025;-45
2023/11/24 06:20:14;;;;;;;0.10;0.10;;;13.60;99.20;;;;;;5032357;28;20108;-46
2023/11/24 06:22:40;;;;;;;0.22;0.10;;;13.60;99.10;;;;;;5032525;28;20040;-46
2023/11/24 06:25:06;;;;;;;0.30;0.20;;;13.60;99.10;;;;;;5031200;28;20025;-45
2023/11/24 06:27:31;;;;;;;0.30;0.20;;;13.60;99.10;;;;;;5031403;28;20025;-46
2023/11/24 06:29:58;;;;;;;0.15;0.10;;;13.60;99.10;;;;;;5030734;28;20477;-45
2023/11/24 06:32:24;;;;;;;1.67;0.10;;;13.60;99.10;;;;;;5030671;28;20026;-46
2023/11/24 06:34:49;;;;;;;0.32;0.20;;;13.60;99.10;;;;;;5032139;28;20025;-44
2023/11/24 06:37:15;;;;;;;1.02;0.40;;;13.60;99.10;;;;;;5034090;28;20518;-46
2023/11/24 06:39:40;;;;;;;0.50;0.30;;;13.50;99.10;;;;;;5034140;28;20029;-45
2023/11/24 06:42:06;;;;;;;1.08;0.45;;;13.50;99.10;;;;;;5035573;28;20430;-46
2023/11/24 06:44:31;;;;;;;1.42;0.50;;;13.50;99.10;;;;;;5034190;28;20032;-45
2023/11/24 06:46:57;;;;;;;0.60;0.30;;;13.50;99.10;;;;;;5033839;28;20044;-45
2023/11/24 06:49:23;;;;;;;0.47;0.30;;;13.50;99.10;;;;;;5034666;28;20048;-48
2023/11/24 06:51:50;;;;;;;0.47;0.20;;;13.50;99.10;;;;;;5034762;28;20041;-46
2023/11/24 06:54:15;;;;;;;0.75;0.30;;;13.50;99.10;;;;;;5035384;28;20026;-46
2023/11/24 06:56:41;;;;;;;1.45;0.50;;;13.50;99.10;;;;;;5033862;28;20022;-46
2023/11/24 06:59:07;;;;;;;0.50;0.28;;;13.60;99.20;;;;;;5033667;28;20110;-46
2023/11/24 07:01:35;;;;;;;0.50;0.30;;;13.60;99.10;;;;;;5034797;28;20025;-45
2023/11/24 07:04:04;;;;;;;1.00;0.52;;;13.60;99.10;;;;;;5033960;28;20022;-46
2023/11/24 07:06:29;;;;;;;0.52;0.30;;;13.60;99.10;;;;;;5034154;28;20032;-46
2023/11/24 07:08:55;;;;;;;0.68;0.38;;;13.60;99.10;;;;;;5034838;28;20025;-46
2023/11/24 07:11:22;;;;;;;0.82;0.30;;;13.70;99.10;;;;;;5035003;28;20048;-46
2023/11/24 07:13:49;;;;;;;0.60;0.20;;;13.70;99.10;;;;;;5034208;28;20387;-44
2023/11/24 07:16:14;;;;;;;1.90;0.52;;;13.70;99.00;;;;;;5035088;28;20482;-46
2023/11/24 07:18:40;;;;;;;0.68;0.22;;;13.70;99.00;;;;;;5034612;28;20037;-46
2023/11/24 07:21:06;;;;;;;1.20;0.40;;;13.70;98.90;;;;;;5033958;28;20040;-45
2023/11/24 07:23:32;;;;;;;1.15;0.45;;;13.80;99.00;;;;;;5034317;28;20033;-46
2023/11/24 07:25:58;;;;;;;1.00;0.50;;;13.80;98.90;;;;;;5033597;28;20025;-45
2023/11/24 07:28:24;;;;;;;3.03;0.93;;;13.80;98.90;;;;;;5033692;28;20029;-46
2023/11/24 07:30:50;;;;;;;2.88;1.05;;;13.80;98.80;;;;;;5033846;28;20026;-46
2023/11/24 07:33:16;;;;;;;2.88;0.70;;;13.80;98.80;;;;;;5034463;28;20021;-43
2023/11/24 07:35:43;;;;;;;3.55;1.20;;;13.80;98.70;;;;;;5034457;28;20037;-46
2023/11/24 07:38:10;;;;;;;3.33;0.82;;;13.80;98.70;;;;;;5034415;28;20395;-44
2023/11/24 07:40:36;;;;;;;3.47;1.10;;;13.80;99.00;;;;;;5034188;28;20037;-43
2023/11/24 07:43:01;;;;;;;2.20;0.80;;;13.90;98.70;;;;;;5033504;28;20033;-46
2023/11/24 07:45:27;;;;;;;2.58;1.00;;;13.90;98.70;;;;;;5034777;28;20048;-44
2023/11/24 07:47:53;;;;;;;3.13;1.30;;;13.90;98.70;;;;;;5033626;28;20025;-44
2023/11/24 07:50:19;;;;;;;2.75;0.82;;;14.00;98.60;;;;;;5034445;28;20018;-46
2023/11/24 07:52:44;;;;;;;2.08;0.75;;;14.00;98.60;;;;;;5033587;28;20026;-46
2023/11/24 07:55:13;;;;;;;2.13;0.80;;;14.00;98.50;;;;;;5034186;28;20104;-45
2023/11/24 07:57:39;;;;;;;3.13;0.80;;;14.10;98.50;;;;;;5033958;28;20108;-46
2023/11/24 08:00:09;;;;;;;4.43;0.80;;;14.10;98.50;;;;;;5033878;28;20030;-46
2023/11/24 08:02:35;;;;;;;2.97;0.80;;;14.10;98.40;;;;;;5033038;28;20030;-46
2023/11/24 08:05:00;;;;;;;1.58;0.65;;;14.10;98.40;;;;;;5033349;28;20071;-46
2023/11/24 08:07:26;;;;;;;3.47;0.60;;;14.20;98.70;;;;;;5033011;28;20022;-45
2023/11/24 08:09:52;;;;;;;3.42;0.90;;;14.30;98.40;;;;;;5033021;28;20391;-46
2023/11/24 08:12:17;;;;;;;2.72;0.70;;;14.30;98.30;;;;;;5032970;28;20096;-46
2023/11/24 08:14:43;;;;;;;2.22;0.93;;;14.30;98.30;;;;;;5032686;28;20030;-46
2023/11/24 08:17:09;;;;;;;4.32;1.10;;;14.30;98.20;;;;;;5032307;28;20040;-44
2023/11/24 08:19:35;;;;;;;3.25;1.08;;;14.40;98.20;;;;;;5033308;28;20013;-46
2023/11/24 08:22:02;;;;;;;2.92;0.90;;;14.40;98.20;;;;;;5033216;28;20014;-46
2023/11/24 08:24:29;;;;;;;3.30;0.98;;;14.40;98.20;;;;;;5032051;28;20017;-43
2023/11/24 08:26:55;;;;;;;2.30;0.80;;;14.50;98.10;;;;;;5032099;28;20025;-46
2023/11/24 08:29:21;;;;;;;2.90;0.77;;;14.50;98.10;;;;;;5031915;28;20387;-46
2023/11/24 08:31:48;;;;;;;2.88;0.90;;;14.50;98.00;;;;;;5032054;28;20021;-46
2023/11/24 08:34:15;;;;;;;1.33;0.80;;;14.60;98.00;;;;;;5032014;28;20029;-46
2023/11/24 08:36:41;;;;;;;2.42;0.68;;;14.60;97.90;;;;;;5032002;28;20022;-46
2023/11/24 08:39:12;;;;;;;2.92;0.80;;;14.60;97.90;;;;;;5031615;28;20053;-46
2023/11/24 08:41:45;;;;;;;2.90;0.90;;;14.70;97.90;;;;;;5032187;28;20434;-46
2023/11/24 08:44:12;;;;;;;2.92;0.90;;;14.70;97.80;;;;;;5032895;28;20038;-46
2023/11/24 08:46:38;;;;;;;1.45;0.50;;;14.70;97.80;;;;;;5031738;28;20468;-46
2023/11/24 08:49:05;;;;;;;1.38;0.50;;;14.70;97.80;;;;;;5031612;28;20033;-46
2023/11/24 08:51:31;;;;;;;3.17;0.77;;;14.80;97.70;;;;;;5031643;28;20021;-46
2023/11/24 08:53:58;;;;;;;1.63;0.70;;;14.90;97.70;;;;;;5031725;28;20475;-46
2023/11/24 08:56:24;;;;;;;1.95;0.70;;;14.90;97.70;;;;;;5031586;28;20029;-46
2023/11/24 08:58:50;;;;;;;2.67;0.95;;;14.90;97.60;;;;;;5030896;28;20028;-45
2023/11/24 09:01:16;;;;;;;2.20;0.63;;;14.90;97.60;;;;;;5031819;28;20104;-43
2023/11/24 09:03:41;;;;;;;1.88;0.60;;;15.00;97.60;;;;;;5031506;28;20041;-44
2023/11/24 09:06:07;;;;;;;2.25;0.75;;;15.10;97.50;;;;;;5031308;28;20167;-43
2023/11/24 09:08:33;;;;;;;2.45;0.77;;;15.10;97.50;;;;;;5031371;28;20061;-44
2023/11/24 09:10:59;;;;;;;1.63;0.70;;;15.10;97.40;;;;;;5031514;28;20022;-45
2023/11/24 09:13:24;;;;;;;2.58;0.80;;;15.20;97.40;;;;;;5031221;28;20033;-44
2023/11/24 09:15:50;;;;;;;1.60;0.60;;;15.20;97.40;;;;;;5031662;28;20071;-46
2023/11/24 09:18:16;;;;;;;2.95;0.80;;;15.20;97.30;;;;;;5031210;28;20037;-46
2023/11/24 09:20:41;;;;;;;2.55;0.75;;;15.20;97.30;;;;;;5032048;28;20026;-43
2023/11/24 09:23:07;;;;;;;1.45;0.68;;;15.30;97.30;;;;;;5032561;28;20128;-45
2023/11/24 09:25:33;;;;;;;1.23;0.75;;;15.30;97.30;;;;;;5033095;28;20033;-45
2023/11/24 09:28:00;;;;;;;1.95;0.70;;;15.40;97.20;;;;;;5032136;28;20495;-46
2023/11/24 09:30:26;;;;;;;1.33;0.63;;;15.40;97.20;;;;;;5032865;28;20068;-46
2023/11/24 09:32:54;;;;;;;2.88;0.70;;;15.40;97.10;;;;;;5031912;28;20025;-44
2023/11/24 09:35:24;;;;;;;2.90;0.85;;;15.50;97.10;;;;;;5032830;28;20037;-45
2023/11/24 09:37:54;;;;;;;1.92;0.80;;;15.50;97.00;;;;;;5031750;28;20036;-46
2023/11/24 09:40:22;;;;;;;1.75;0.70;;;15.50;96.90;;;;;;5032620;28;20076;-46
2023/11/24 09:42:49;;;;;;;2.13;0.77;;;15.60;96.90;;;;;;5032042;28;20038;-44
2023/11/24 09:45:21;;;;;;;2.65;0.73;;;15.60;96.80;;;;;;5032198;28;20064;-45
2023/11/24 09:47:51;;;;;;;2.17;0.75;;;15.60;96.80;;;;;;5031063;28;20498;-46
2023/11/24 09:50:23;;;;;;;2.28;0.90;;;15.70;96.80;;;;;;5031690;28;20032;-44
2023/11/24 09:52:49;;;;;;;1.67;0.90;;;15.70;96.70;;;;;;5032382;28;20029;-46
2023/11/24 09:55:16;;;;;;;1.65;0.65;;;15.70;96.70;;;;;;5031293;28;20112;-46
2023/11/24 09:57:43;;;;;;;4.97;1.40;;;15.70;96.60;;;;;;5031320;28;20543;-45
2023/11/24 10:00:10;;;;;;;5.25;1.75;;;15.80;96.60;;;;;;5032217;28;20084;-46
2023/11/24 10:02:37;;;;;;;5.53;2.13;;;15.80;96.40;;;;;;5031918;28;20553;-45
2023/11/24 10:05:05;;;;;;;6.50;2.00;;;15.80;96.40;;;;;;5032429;28;20022;-46
2023/11/24 10:07:32;;;;;;;6.22;2.10;;;15.80;96.50;;;;;;5032355;28;20379;-41
2023/11/24 10:09:58;;;;;;;5.57;2.13;;;15.80;96.60;;;;;;5032418;28;20382;-40
2023/11/24 10:12:25;;;;;;;6.40;2.20;;;15.80;96.60;;;;;;5035194;28;20017;-46
2023/11/24 10:14:54;;;;;;;5.13;2.10;;;15.80;96.70;;;;;;5035496;28;20463;-46
2023/11/24 10:17:22;;;;;;;6.03;2.10;;;15.90;96.80;;;;;;5035384;28;20075;-46
2023/11/24 10:19:49;;;;;;;6.50;2.30;;;15.90;96.90;;;;;;5035515;28;20018;-46
2023/11/24 10:22:15;;;;;;;6.00;2.05;;;15.90;96.90;;;;;;5034678;28;20032;-46
2023/11/24 10:24:40;;;;;;;5.95;2.00;;;15.90;96.90;;;;;;5034312;28;20025;-45
2023/11/24 10:27:20;;;;;;;6.93;2.15;;;15.90;97.00;;;;;;5035245;28;20017;-46
2023/11/24 10:29:50;;;;;;;5.20;1.85;;;16.00;97.10;;;;;;5035621;28;20030;-45
2023/11/24 10:32:19;;;;;;;7.70;2.00;;;15.90;97.10;;;;;;5035230;28;20022;-46
2023/11/24 10:34:49;;;;;;;6.97;1.92;;;16.00;97.10;;;;;;5035967;28;20083;-46
2023/11/24 10:37:20;;;;;;;6.22;2.05;;;16.00;97.20;;;;;;5035310;28;20038;-46
2023/11/24 10:39:48;;;;;;;4.53;1.70;;;16.00;97.20;;;;;;5034204;28;20041;-45
2023/11/24 10:42:19;;;;;;;6.38;1.77;;;16.00;97.20;;;;;;5034080;28;20026;-43
2023/11/24 10:44:50;;;;;;;5.35;1.70;;;16.00;97.20;;;;;;5034825;28;20125;-42
2023/11/24 10:47:23;;;;;;;5.22;1.85;;;16.10;97.20;;;;;;5034494;28;20024;-46
2023/11/24 10:49:59;;;;;;;4.40;1.80;;;16.10;97.30;;;;;;5033927;28;20101;-44
2023/11/24 10:52:32;;;;;;;6.60;1.85;;;16.10;97.30;;;;;;5035099;28;20045;-43
2023/11/24 10:55:09;;;;;;;4.18;1.70;;;16.10;97.30;;;;;;5034358;28;20442;-46
2023/11/24 10:57:36;;;;;;;5.00;1.42;;;16.20;97.30;;;;;;5034556;28;20434;-45
2023/11/24 11:00:03;;;;;;;4.78;1.55;;;16.10;97.30;;;;;;5035101;28;20023;-43
2023/11/24 11:02:29;;;;;;;3.42;1.63;;;16.10;97.30;;;;;;5034952;28;20013;-45
2023/11/24 11:05:13;;;;;;;6.30;1.50;;;16.20;97.70;;;;;;5035382;28;20035;-44
2023/11/24 11:08:17;;;;;;;3.83;1.55;;;16.20;97.40;;;;;;5034991;28;20076;-46
2023/11/24 11:11:15;;;;;;;3.55;1.30;;;16.20;97.40;;;;;;5034633;28;20026;-42
2023/11/24 11:13:42;;;;;;;3.95;1.60;;;16.20;97.40;;;;;;5013982;28;20044;-45
2023/11/24 11:16:10;;;;;;;4.32;1.40;;;16.20;97.40;;;;;;5033731;28;20128;-46
2023/11/24 11:18:36;;;;;;;4.53;1.40;;;16.30;97.40;;;;;;5034352;28;20047;-44
2023/11/24 11:21:13;;;;;;;4.68;1.40;;;16.30;97.40;;;;;;5034951;28;20378;-46
2023/11/24 11:23:38;;;;;;;5.63;1.48;;;16.40;97.40;;;;;;5035315;28;20025;-45
2023/11/24 11:26:06;;;;;;;4.45;1.80;;;16.40;97.30;;;;;;5034155;28;20045;-45
2023/11/24 11:28:37;;;;;;;3.40;1.42;;;16.40;97.30;;;;;;5034204;28;20425;-44
2023/11/24 11:31:21;;;;;;;3.92;1.50;;;16.40;97.60;;;;;;5034754;28;20028;-45
2023/11/24 11:33:47;;;;;;;4.32;1.60;;;16.50;97.30;;;;;;5034536;28;20499;-43
2023/11/24 11:36:14;;;;;;;4.63;1.90;;;16.50;97.20;;;;;;5033033;28;20036;-46
2023/11/24 11:38:43;;;;;;;4.47;1.67;;;16.50;97.20;;;;;;5032794;28;20029;-46
2023/11/24 11:41:09;;;;;;;3.03;1.60;;;16.50;97.20;;;;;;5033043;28;20025;-45
2023/11/24 11:43:52;;;;;;;4.45;1.60;;;16.60;97.20;;;;;;5033458;28;20026;-46
2023/11/24 11:46:18;;;;;;;2.00;1.27;;;16.60;97.10;;;;;;5034045;28;20026;-43
2023/11/24 11:48:43;;;;;;;3.55;1.40;;;16.60;97.10;;;;;;5033802;28;20079;-45
2023/11/24 11:51:16;;;;;;;5.82;1.40;;;16.60;97.10;;;;;;5034291;28;20029;-40
2023/11/24 11:53:42;;;;;;;3.92;1.30;;;16.70;97.00;;;;;;5033901;28;20381;-46
2023/11/24 11:56:10;;;;;;;4.50;1.42;;;16.70;97.00;;;;;;5033415;28;20026;-46
2023/11/24 11:58:36;;;;;;;4.63;1.40;;;16.70;97.00;;;;;;5033714;28;20086;-45
2023/11/24 12:01:04;;;;;;;3.58;1.73;;;16.70;96.90;;;;;;5033803;28;20044;-46
2023/11/24 12:03:30;;;;;;;2.88;1.58;;;16.70;96.90;;;;;;5033434;28;20029;-42
2023/11/24 12:05:58;;;;;;;5.65;1.70;;;16.70;96.90;;;;;;5033691;28;20029;-46
2023/11/24 12:08:27;;;;;;;2.65;1.17;;;16.80;96.90;;;;;;5033783;28;20379;-46
2023/11/24 12:10:53;;;;;;;3.75;1.50;;;16.80;96.90;;;;;;5033583;28;20025;-45
2023/11/24 12:13:21;;;;;;;2.92;1.42;;;16.80;96.90;;;;;;5032944;28;20049;-43
2023/11/24 12:15:48;;;;;;;3.70;1.33;;;16.80;96.90;;;;;;5033071;28;20336;-46
2023/11/24 12:18:17;;;;;;;4.25;1.45;;;16.80;97.20;;;;;;5033300;28;20030;-45
2023/11/24 12:20:50;;;;;;;3.47;1.40;;;16.70;96.90;;;;;;5033896;28;20032;-45
2023/11/24 12:23:17;;;;;;;4.57;1.75;;;16.80;96.90;;;;;;5032901;28;20394;-45
2023/11/24 12:25:43;;;;;;;2.88;1.40;;;16.80;96.90;;;;;;5033722;28;20032;-45
2023/11/24 12:28:11;;;;;;;2.17;1.10;;;16.80;96.90;;;;;;5032556;28;20100;-45
2023/11/24 12:30:42;;;;;;;4.13;1.58;;;16.80;97.20;;;;;;5032797;28;20695;-44
2023/11/24 12:33:24;;;;;;;2.92;1.20;;;16.80;96.90;;;;;;5032228;28;20049;-46
2023/11/24 12:35:52;;;;;;;2.80;1.25;;;16.80;96.80;;;;;;5033849;28;20036;-45
2023/11/24 12:38:19;;;;;;;3.88;1.40;;;16.80;96.80;;;;;;5032788;28;20037;-45
2023/11/24 12:40:45;;;;;;;3.45;1.30;;;16.80;96.80;;;;;;5032379;28;20391;-46
2023/11/24 12:43:15;;;;;;;3.63;1.50;;;16.80;96.80;;;;;;5033252;28;20026;-43
2023/11/24 12:45:41;;;;;;;3.03;1.42;;;16.80;96.80;;;;;;5033094;28;20017;-46
2023/11/24 12:48:21;;;;;;;3.50;1.38;;;16.80;96.80;;;;;;5031795;28;20468;-41